createdAt,value
2018-03-15T00:01:57.903Z,0.14
2018-03-15T00:04:23.965Z,0.10
2018-03-15T00:06:49.998Z,0.11
2018-03-15T00:09:16.082Z,0.06
2018-03-15T00:11:42.061Z,0.14
2018-03-15T00:14:08.047Z,0.15
2018-03-15T00:16:34.139Z,0.16
2018-03-15T00:19:00.181Z,0.15
2018-03-15T00:21:26.196Z,0.03
2018-03-15T00:23:52.219Z,0.00
2018-03-15T00:26:18.790Z,-0.10
2018-03-15T00:28:44.858Z,-0.14
2018-03-15T00:31:10.913Z,-0.12
2018-03-15T00:33:36.877Z,-0.01
2018-03-15T00:36:02.902Z,-0.16
2018-03-15T00:38:28.917Z,-0.12
2018-03-15T00:40:54.938Z,-0.07
2018-03-15T00:43:20.993Z,-0.04
2018-03-15T00:45:47.045Z,-0.10
2018-03-15T00:48:13.165Z,-0.23
2018-03-15T00:50:39.241Z,-0.35
2018-03-15T00:53:05.300Z,-0.33
2018-03-15T00:55:31.301Z,-0.31
2018-03-15T00:57:57.278Z,-0.29
2018-03-15T01:00:23.340Z,-0.33
2018-03-15T01:02:49.356Z,-0.29
2018-03-15T01:05:15.344Z,-0.39
2018-03-15T01:07:41.370Z,-0.32
2018-03-15T01:10:07.435Z,-0.27
2018-03-15T01:12:33.465Z,-0.25
2018-03-15T01:14:59.477Z,-0.31
2018-03-15T01:17:25.505Z,-0.43
2018-03-15T01:19:51.513Z,-0.52
2018-03-15T01:22:17.542Z,-0.44
2018-03-15T01:24:43.573Z,-0.50
2018-03-15T01:27:09.607Z,-0.48
2018-03-15T01:29:35.554Z,-0.37
2018-03-15T01:32:01.597Z,-0.49
2018-03-15T01:34:27.628Z,-0.52
2018-03-15T01:36:53.641Z,-0.46
2018-03-15T01:39:19.677Z,-0.48
2018-03-15T01:41:45.722Z,-0.42
2018-03-15T01:44:11.760Z,-0.51
2018-03-15T01:46:37.761Z,-0.53
2018-03-15T01:49:03.801Z,-0.52
2018-03-15T01:51:29.837Z,-0.55
2018-03-15T01:53:55.826Z,-0.52
2018-03-15T01:56:21.866Z,-0.63
2018-03-15T01:58:47.899Z,-0.68
2018-03-15T02:01:13.917Z,-0.68
2018-03-15T02:03:39.954Z,-0.68
2018-03-15T02:06:06.033Z,-0.69
2018-03-15T02:08:32.057Z,-0.71
2018-03-15T02:10:58.144Z,-0.68
2018-03-15T02:13:24.162Z,-0.63
2018-03-15T02:15:50.219Z,-0.65
2018-03-15T02:18:16.258Z,-0.67
2018-03-15T02:20:42.266Z,-0.64
2018-03-15T02:23:08.378Z,-0.67
2018-03-15T02:25:34.412Z,-0.70
2018-03-15T02:28:00.430Z,-0.77
2018-03-15T02:30:26.466Z,-0.85
2018-03-15T02:32:52.501Z,-0.93
2018-03-15T02:35:18.540Z,-0.87
2018-03-15T02:37:44.552Z,-0.80
2018-03-15T02:40:10.650Z,-0.73
2018-03-15T02:42:36.711Z,-0.79
2018-03-15T02:45:02.773Z,-0.92
2018-03-15T02:47:28.902Z,-1.04
2018-03-15T02:49:54.953Z,-1.02
2018-03-15T02:52:20.986Z,-1.07
2018-03-15T02:54:47.066Z,-1.08
2018-03-15T02:57:13.106Z,-1.05
2018-03-15T02:59:39.129Z,-1.03
2018-03-15T03:02:05.219Z,-1.06
2018-03-15T03:04:31.262Z,-1.02
2018-03-15T03:06:57.251Z,-1.14
2018-03-15T03:09:23.770Z,-1.36
2018-03-15T03:11:49.773Z,-1.39
2018-03-15T03:14:15.799Z,-1.35
2018-03-15T03:16:41.797Z,-1.51
2018-03-15T03:19:07.768Z,-1.57
2018-03-15T03:21:33.805Z,-1.49
2018-03-15T03:23:59.842Z,-1.41
2018-03-15T03:26:25.875Z,-1.45
2018-03-15T03:28:51.882Z,-1.44
2018-03-15T03:31:17.865Z,-1.35
2018-03-15T03:33:43.870Z,-1.42
2018-03-15T03:36:09.934Z,-1.43
2018-03-15T03:38:35.948Z,-1.43
2018-03-15T03:41:01.967Z,-1.48
2018-03-15T03:43:28.004Z,-1.50
2018-03-15T03:45:54.048Z,-1.58
2018-03-15T03:48:20.046Z,-1.59
2018-03-15T03:50:46.062Z,-1.67
2018-03-15T03:53:12.126Z,-1.81
2018-03-15T03:55:38.128Z,-1.91
2018-03-15T03:58:04.257Z,-1.87
2018-03-15T04:00:30.318Z,-1.85
2018-03-15T04:02:56.327Z,-1.81
2018-03-15T04:05:22.427Z,-1.89
2018-03-15T04:07:48.482Z,-1.82
2018-03-15T04:10:14.506Z,-1.85
2018-03-15T04:12:40.506Z,-1.89
2018-03-15T04:15:06.544Z,-1.91
2018-03-15T04:17:32.530Z,-1.93
2018-03-15T04:19:58.577Z,-1.83
2018-03-15T04:22:24.593Z,-1.92
2018-03-15T04:24:50.606Z,-1.97
2018-03-15T04:27:16.621Z,-1.90
2018-03-15T04:29:42.851Z,-2.00
2018-03-15T04:32:08.877Z,-2.03
2018-03-15T04:34:34.878Z,-2.01
2018-03-15T04:37:00.973Z,-2.04
2018-03-15T04:39:27.377Z,-2.26
2018-03-15T04:41:53.428Z,-2.14
2018-03-15T04:44:19.385Z,-2.13
2018-03-15T04:46:45.352Z,-2.09
2018-03-15T04:49:11.380Z,-2.00
2018-03-15T04:51:37.395Z,-1.97
2018-03-15T04:54:03.490Z,-1.99
2018-03-15T04:56:29.473Z,-2.12
2018-03-15T04:58:55.453Z,-2.09
2018-03-15T05:01:21.538Z,-2.20
2018-03-15T05:03:47.553Z,-2.32
2018-03-15T05:06:13.583Z,-2.16
2018-03-15T05:08:39.594Z,-2.10
2018-03-15T05:11:05.645Z,-2.37
2018-03-15T05:13:31.655Z,-2.71
2018-03-15T05:15:57.661Z,-2.79
2018-03-15T05:18:23.729Z,-2.56
2018-03-15T05:20:49.778Z,-2.51
2018-03-15T05:23:15.810Z,-2.36
2018-03-15T05:25:41.813Z,-2.30
2018-03-15T05:28:07.840Z,-2.20
2018-03-15T05:30:33.892Z,-2.10
2018-03-15T05:32:59.948Z,-2.06
2018-03-15T05:35:25.945Z,-1.97
2018-03-15T05:37:51.948Z,-2.02
2018-03-15T05:40:18.020Z,-1.98
2018-03-15T05:42:44.036Z,-1.88
2018-03-15T05:45:10.062Z,-1.89
2018-03-15T05:47:36.069Z,-1.85
2018-03-15T05:50:02.229Z,-1.83
2018-03-15T05:52:28.248Z,-1.83
2018-03-15T05:54:54.242Z,-1.91
2018-03-15T05:57:20.270Z,-1.82
2018-03-15T05:59:46.250Z,-1.79
2018-03-15T06:02:12.353Z,-1.74
2018-03-15T06:04:38.403Z,-1.66
2018-03-15T06:07:04.422Z,-1.56
2018-03-15T06:09:30.437Z,-1.42
2018-03-15T06:11:56.536Z,-1.29
2018-03-15T06:14:22.573Z,-1.27
2018-03-15T06:16:48.631Z,-1.21
2018-03-15T06:19:14.671Z,-1.34
2018-03-15T06:21:40.682Z,-1.28
2018-03-15T06:24:06.664Z,-1.22
2018-03-15T06:26:33.186Z,-1.18
2018-03-15T06:28:59.528Z,-1.09
2018-03-15T06:31:25.530Z,-1.03
2018-03-15T06:33:51.550Z,-0.90
2018-03-15T06:36:17.628Z,-0.84
2018-03-15T06:38:43.660Z,-0.92
2018-03-15T06:41:09.705Z,-0.90
2018-03-15T06:43:35.662Z,-0.85
2018-03-15T06:46:01.793Z,-0.84
2018-03-15T06:48:27.896Z,-0.72
2018-03-15T06:50:53.937Z,-0.57
2018-03-15T06:53:19.924Z,-0.50
2018-03-15T06:55:46.416Z,-0.37
2018-03-15T06:58:12.427Z,-0.25
2018-03-15T07:00:38.429Z,-0.09
2018-03-15T07:03:04.510Z,0.12
2018-03-15T07:05:30.509Z,0.55
2018-03-15T07:07:56.521Z,0.80
2018-03-15T07:10:22.690Z,1.02
2018-03-15T07:12:48.686Z,1.29
2018-03-15T07:15:14.742Z,1.40
2018-03-15T07:17:40.777Z,1.54
2018-03-15T07:20:06.794Z,1.76
2018-03-15T07:22:32.813Z,1.97
2018-03-15T07:24:58.844Z,2.22
2018-03-15T07:27:24.887Z,2.46
2018-03-15T07:29:50.941Z,2.31
2018-03-15T07:32:16.955Z,2.46
2018-03-15T07:34:42.953Z,2.55
2018-03-15T07:37:09.026Z,2.61
2018-03-15T07:39:35.062Z,2.71
2018-03-15T07:42:01.106Z,2.78
2018-03-15T07:44:27.117Z,3.11
2018-03-15T07:46:53.216Z,3.23
2018-03-15T07:49:19.264Z,3.44
2018-03-15T07:51:45.276Z,3.22
2018-03-15T07:54:11.281Z,3.37
2018-03-15T07:56:37.366Z,3.43
2018-03-15T07:59:03.375Z,3.76
2018-03-15T08:01:29.399Z,3.79
2018-03-15T08:03:55.405Z,3.89
2018-03-15T08:06:21.445Z,4.03
2018-03-15T08:08:47.890Z,4.16
2018-03-15T08:11:13.940Z,4.36
2018-03-15T08:13:39.986Z,4.40
2018-03-15T08:16:05.977Z,4.57
2018-03-15T08:18:31.998Z,4.56
2018-03-15T08:20:58.117Z,4.69
2018-03-15T08:23:24.150Z,4.72
2018-03-15T08:25:50.165Z,4.82
2018-03-15T08:28:16.160Z,4.84
2018-03-15T08:30:42.170Z,4.71
2018-03-15T08:33:08.197Z,4.93
2018-03-15T08:35:34.221Z,5.02
2018-03-15T08:38:00.182Z,4.91
2018-03-15T08:40:26.213Z,4.78
2018-03-15T08:42:52.237Z,4.99
2018-03-15T08:45:18.658Z,5.05
2018-03-15T08:47:44.741Z,5.17
2018-03-15T08:50:10.748Z,5.30
2018-03-15T08:52:36.769Z,5.59
2018-03-15T08:55:03.102Z,5.59
2018-03-15T08:57:29.181Z,5.50
2018-03-15T08:59:55.189Z,5.70
2018-03-15T09:02:21.252Z,5.86
2018-03-15T09:04:47.382Z,5.64
2018-03-15T09:07:13.383Z,5.66
2018-03-15T09:09:39.406Z,5.71
2018-03-15T09:12:05.440Z,5.80
2018-03-15T09:14:31.453Z,6.00
2018-03-15T09:16:57.471Z,5.99
2018-03-15T09:19:23.552Z,5.88
2018-03-15T09:21:49.596Z,5.68
2018-03-15T09:24:15.664Z,5.82
2018-03-15T09:26:41.738Z,5.82
2018-03-15T09:29:07.862Z,5.75
2018-03-15T09:31:33.888Z,5.77
2018-03-15T09:33:59.904Z,5.95
2018-03-15T09:36:25.865Z,6.38
2018-03-15T09:38:51.878Z,6.07
2018-03-15T09:41:17.949Z,6.02
2018-03-15T09:43:43.961Z,6.33
2018-03-15T09:46:10.064Z,6.39
2018-03-15T09:48:36.009Z,6.37
2018-03-15T09:51:02.084Z,6.27
2018-03-15T09:53:28.154Z,6.31
2018-03-15T09:55:54.187Z,5.98
2018-03-15T09:58:20.230Z,6.18
2018-03-15T10:00:46.305Z,6.16
2018-03-15T10:03:12.305Z,6.22
2018-03-15T10:05:38.367Z,6.49
2018-03-15T10:08:04.372Z,6.51
2018-03-15T10:10:30.393Z,6.44
2018-03-15T10:12:56.433Z,6.71
2018-03-15T10:15:22.453Z,6.83
2018-03-15T10:17:48.481Z,6.75
2018-03-15T10:20:14.535Z,6.77
2018-03-15T10:22:40.529Z,6.78
2018-03-15T10:25:13.767Z,6.88
2018-03-15T10:27:32.539Z,6.91
2018-03-15T10:29:58.648Z,6.88
2018-03-15T10:32:24.658Z,6.88
2018-03-15T10:34:57.010Z,6.65
2018-03-15T10:37:23.030Z,6.84
2018-03-15T10:39:49.053Z,6.87
2018-03-15T10:42:15.201Z,6.89
2018-03-15T10:44:41.237Z,6.75
2018-03-15T10:47:07.717Z,6.73
2018-03-15T10:49:33.749Z,6.39
2018-03-15T10:51:59.856Z,6.56
2018-03-15T10:54:25.868Z,6.74
2018-03-15T10:56:51.892Z,6.68
2018-03-15T10:59:17.945Z,6.60
2018-03-15T11:01:48.937Z,6.93
2018-03-15T11:04:14.938Z,6.91
2018-03-15T11:06:40.982Z,7.01
2018-03-15T11:09:13.219Z,6.96
2018-03-15T11:11:39.249Z,7.32
2018-03-15T11:14:05.316Z,7.39
2018-03-15T11:16:31.283Z,7.26
2018-03-15T11:18:57.286Z,7.48
2018-03-15T11:21:23.381Z,7.38
2018-03-15T11:23:49.457Z,7.61
2018-03-15T11:26:15.406Z,7.51
2018-03-15T11:28:41.457Z,7.12
2018-03-15T11:31:07.976Z,7.17
2018-03-15T11:33:33.997Z,7.44
2018-03-15T11:36:00.022Z,7.75
2018-03-15T11:38:26.094Z,7.89
2018-03-15T11:40:52.110Z,7.78
2018-03-15T11:43:18.157Z,8.10
2018-03-15T11:45:44.190Z,8.09
2018-03-15T11:48:10.259Z,7.95
2018-03-15T11:50:36.312Z,8.32
2018-03-15T11:53:02.314Z,7.95
2018-03-15T11:58:21.315Z,8.45
2018-03-15T12:00:47.377Z,8.68
2018-03-15T12:03:13.392Z,8.66
2018-03-15T12:05:39.406Z,8.32
2018-03-15T12:08:05.496Z,7.96
2018-03-15T12:10:31.479Z,8.65
2018-03-15T12:12:57.549Z,8.48
2018-03-15T12:15:23.713Z,8.91
2018-03-15T12:17:49.742Z,8.87
2018-03-15T12:20:15.737Z,8.73
2018-03-15T12:22:41.777Z,8.80
2018-03-15T12:25:07.806Z,9.35
2018-03-15T12:27:33.859Z,9.52
2018-03-15T12:29:59.828Z,9.18
2018-03-15T12:32:25.858Z,9.92
2018-03-15T12:34:51.881Z,10.09
2018-03-15T12:37:17.933Z,9.96
2018-03-15T12:39:43.991Z,9.48
2018-03-15T12:42:10.013Z,9.60
2018-03-15T12:44:36.091Z,9.40
2018-03-15T12:47:02.071Z,9.77
2018-03-15T12:49:28.109Z,9.75
2018-03-15T12:51:54.125Z,10.03
2018-03-15T12:54:20.161Z,10.30
2018-03-15T12:56:46.185Z,10.06
2018-03-15T12:59:12.215Z,10.19
2018-03-15T13:01:38.257Z,10.12
2018-03-15T13:04:04.320Z,10.88
2018-03-15T13:06:30.365Z,10.90
2018-03-15T13:08:56.322Z,10.39
2018-03-15T13:11:22.726Z,10.67
2018-03-15T13:13:48.829Z,10.69
2018-03-15T13:16:14.914Z,11.05
2018-03-15T13:18:40.954Z,11.06
2018-03-15T13:21:06.945Z,11.07
2018-03-15T13:23:33.078Z,11.11
2018-03-15T13:25:59.107Z,11.56
2018-03-15T13:28:25.149Z,11.07
2018-03-15T13:30:51.211Z,11.59
2018-03-15T13:33:17.217Z,10.98
2018-03-15T13:35:43.257Z,10.98
2018-03-15T13:38:09.376Z,10.95
2018-03-15T13:40:35.449Z,11.48
2018-03-15T13:43:01.486Z,11.59
2018-03-15T13:45:27.572Z,11.15
2018-03-15T13:47:53.642Z,10.61
2018-03-15T13:50:19.648Z,10.63
2018-03-15T13:52:45.741Z,9.97
2018-03-15T13:55:11.740Z,9.87
2018-03-15T13:57:37.766Z,9.88
2018-03-15T14:00:04.054Z,9.77
2018-03-15T14:02:30.094Z,10.54
2018-03-15T14:04:56.097Z,9.96
2018-03-15T14:07:22.121Z,10.00
2018-03-15T14:09:48.142Z,10.77
2018-03-15T14:12:14.165Z,10.36
2018-03-15T14:14:40.212Z,10.23
2018-03-15T14:17:06.222Z,9.96
2018-03-15T14:19:32.275Z,9.82
2018-03-15T14:21:58.304Z,9.80
2018-03-15T14:24:24.333Z,9.77
2018-03-15T14:26:50.353Z,9.49
2018-03-15T14:29:16.408Z,9.89
2018-03-15T14:31:42.387Z,10.19
2018-03-15T14:34:08.405Z,9.63
2018-03-15T14:36:34.479Z,9.90
2018-03-15T14:39:00.526Z,10.61
2018-03-15T14:41:26.548Z,10.86
2018-03-15T14:43:52.595Z,10.23
2018-03-15T14:46:18.597Z,10.13
2018-03-15T14:48:44.625Z,10.56
2018-03-15T14:51:10.641Z,10.48
2018-03-15T14:53:36.690Z,10.40
2018-03-15T14:56:02.723Z,10.40
2018-03-15T14:58:28.778Z,10.58
2018-03-15T15:00:54.773Z,10.11
2018-03-15T15:03:20.809Z,10.31
2018-03-15T15:05:46.960Z,10.06
2018-03-15T15:08:12.981Z,9.84
2018-03-15T15:10:38.997Z,10.53
2018-03-15T15:13:05.066Z,10.56
2018-03-15T15:15:31.129Z,10.57
2018-03-15T15:17:57.146Z,10.43
2018-03-15T15:20:23.182Z,9.75
2018-03-15T15:22:49.265Z,10.14
2018-03-15T15:25:15.342Z,10.99
2018-03-15T15:27:41.413Z,10.30
2018-03-15T15:30:07.453Z,10.34
2018-03-15T15:32:33.454Z,9.73
2018-03-15T15:34:59.473Z,9.46
2018-03-15T15:37:25.548Z,9.32
2018-03-15T15:39:51.647Z,9.14
2018-03-15T15:42:17.693Z,8.91
2018-03-15T15:44:43.746Z,8.86
2018-03-15T15:47:09.825Z,8.62
2018-03-15T15:49:35.873Z,8.64
2018-03-15T15:52:02.057Z,8.77
2018-03-15T15:54:28.082Z,8.62
2018-03-15T15:56:54.119Z,8.77
2018-03-15T15:59:20.139Z,8.41
2018-03-15T16:01:46.194Z,8.30
2018-03-15T16:04:12.396Z,8.07
2018-03-15T16:06:38.425Z,7.97
2018-03-15T16:09:04.960Z,7.93
2018-03-15T16:11:31.246Z,7.85
2018-03-15T16:13:57.285Z,7.77
2018-03-15T16:16:23.312Z,7.82
2018-03-15T16:18:49.599Z,7.68
2018-03-15T16:21:15.555Z,7.64
2018-03-15T16:23:41.603Z,7.65
2018-03-15T16:26:07.952Z,7.53
2018-03-15T16:28:33.996Z,7.50
2018-03-15T16:31:00.026Z,7.43
2018-03-15T16:33:26.031Z,7.40
2018-03-15T16:35:52.061Z,7.36
2018-03-15T16:38:18.109Z,7.34
2018-03-15T16:40:44.130Z,7.26
2018-03-15T16:43:10.197Z,7.16
2018-03-15T16:45:36.200Z,7.22
2018-03-15T16:48:02.263Z,7.20
2018-03-15T16:50:28.333Z,7.17
2018-03-15T16:52:54.408Z,7.14
2018-03-15T16:55:20.434Z,7.02
2018-03-15T16:57:46.505Z,7.10
2018-03-15T17:00:12.494Z,7.15
2018-03-15T17:02:38.509Z,6.89
2018-03-15T17:05:04.560Z,6.95
2018-03-15T17:07:30.602Z,6.82
2018-03-15T17:09:56.637Z,6.98
2018-03-15T17:12:22.602Z,6.82
2018-03-15T17:14:48.639Z,6.70
2018-03-15T17:17:14.732Z,6.64
2018-03-15T17:19:41.115Z,6.57
2018-03-15T17:22:07.222Z,6.62
2018-03-15T17:24:33.272Z,6.58
2018-03-15T17:26:59.441Z,6.43
2018-03-15T17:29:25.409Z,6.46
2018-03-15T17:31:51.450Z,6.40
2018-03-15T17:34:17.574Z,6.32
2018-03-15T17:36:43.666Z,6.28
2018-03-15T17:39:10.484Z,6.29
2018-03-15T17:41:36.500Z,6.22
2018-03-15T17:44:02.558Z,6.22
2018-03-15T17:46:28.576Z,6.16
2018-03-15T17:48:54.666Z,6.12
2018-03-15T17:51:20.652Z,6.12
2018-03-15T17:53:46.752Z,6.09
2018-03-15T17:56:12.791Z,5.91
2018-03-15T17:58:39.358Z,5.86
2018-03-15T18:01:06.083Z,5.83
2018-03-15T18:03:32.121Z,5.76
2018-03-15T18:05:58.162Z,5.86
2018-03-15T18:08:24.208Z,5.64
2018-03-15T18:10:50.359Z,5.69
2018-03-15T18:13:16.530Z,5.68
2018-03-15T18:15:42.503Z,5.57
2018-03-15T18:18:08.562Z,5.53
2018-03-15T18:20:34.614Z,5.60
2018-03-15T18:23:00.712Z,5.51
2018-03-15T18:25:26.754Z,5.44
2018-03-15T18:27:52.856Z,5.42
2018-03-15T18:30:19.313Z,5.53
2018-03-15T18:32:45.372Z,5.39
2018-03-15T18:35:11.452Z,5.36
2018-03-15T18:37:37.563Z,5.38
2018-03-15T18:40:03.597Z,5.42
2018-03-15T18:42:29.652Z,5.28
2018-03-15T18:44:55.731Z,5.27
2018-03-15T18:47:21.793Z,5.19
2018-03-15T18:49:47.917Z,5.28
2018-03-15T18:52:14.011Z,5.22
2018-03-15T18:54:40.443Z,5.18
2018-03-15T18:57:06.502Z,5.17
2018-03-15T18:59:32.530Z,5.18
2018-03-15T19:01:58.551Z,5.22
2018-03-15T19:04:35.776Z,5.20
2018-03-15T19:07:02.254Z,5.09
2018-03-15T19:09:28.291Z,5.02
2018-03-15T19:11:54.394Z,5.15
2018-03-15T19:14:20.874Z,5.17
2018-03-15T19:16:46.916Z,5.07
2018-03-15T19:19:13.099Z,5.13
2018-03-15T19:21:39.268Z,5.08
2018-03-15T19:24:05.298Z,5.04
2018-03-15T19:26:31.395Z,5.06
2018-03-15T19:28:57.452Z,5.09
2018-03-15T19:31:23.511Z,5.06
2018-03-15T19:33:49.603Z,5.03
2018-03-15T19:36:15.645Z,5.05
2018-03-15T19:38:41.721Z,5.01
2018-03-15T19:41:07.762Z,5.03
2018-03-15T19:43:33.877Z,5.03
2018-03-15T19:46:00.042Z,5.02
2018-03-15T19:48:26.127Z,4.99
2018-03-15T19:50:53.271Z,5.10
2018-03-15T19:53:19.404Z,5.01
2018-03-15T19:55:45.509Z,5.09
2018-03-15T19:58:11.617Z,5.16
2018-03-15T20:00:37.699Z,5.14
2018-03-15T20:03:03.877Z,5.19
2018-03-15T20:05:29.982Z,5.21
2018-03-15T20:07:56.187Z,5.22
2018-03-15T20:10:22.350Z,5.21
2018-03-15T20:12:49.279Z,5.24
2018-03-15T20:15:15.293Z,5.26
2018-03-15T20:17:41.354Z,5.31
2018-03-15T20:20:07.342Z,5.25
2018-03-15T20:22:39.373Z,5.25
2018-03-15T20:25:12.357Z,5.21
2018-03-15T20:27:44.526Z,5.20
2018-03-15T20:30:10.552Z,5.18
2018-03-15T20:32:42.648Z,5.17
2018-03-15T20:35:08.731Z,5.17
2018-03-15T20:37:35.232Z,5.08
2018-03-15T20:40:07.198Z,5.15
2018-03-15T20:42:33.250Z,5.11
2018-03-15T20:44:59.291Z,5.13
2018-03-15T20:47:31.394Z,5.05
2018-03-15T20:49:57.368Z,5.06
2018-03-15T20:52:23.430Z,5.05
2018-03-15T20:54:49.473Z,5.05
2018-03-15T20:57:15.485Z,5.03
2018-03-15T20:59:41.537Z,5.04
2018-03-15T21:02:07.593Z,5.09
2018-03-15T21:04:33.646Z,5.02
2018-03-15T21:06:59.642Z,5.04
2018-03-15T21:09:25.758Z,5.03
2018-03-15T21:11:51.778Z,5.05
2018-03-15T21:14:17.869Z,5.03
2018-03-15T21:16:43.988Z,5.11
2018-03-15T21:19:10.034Z,5.05
2018-03-15T21:21:36.479Z,5.11
2018-03-15T21:24:02.550Z,5.08
2018-03-15T21:26:28.554Z,5.08
2018-03-15T21:28:54.761Z,5.11
2018-03-15T21:31:20.806Z,5.12
2018-03-15T21:33:46.837Z,5.06
2018-03-15T21:36:12.977Z,5.07
2018-03-15T21:38:38.963Z,5.09
2018-03-15T21:41:04.964Z,5.17
2018-03-15T21:43:30.982Z,5.05
2018-03-15T21:45:56.997Z,5.08
2018-03-15T21:48:23.053Z,5.08
2018-03-15T21:50:49.165Z,5.11
2018-03-15T21:53:15.223Z,5.12
2018-03-15T21:55:41.185Z,5.05
2018-03-15T21:58:07.222Z,5.04
2018-03-15T22:00:33.300Z,4.96
2018-03-15T22:02:59.498Z,4.84
2018-03-15T22:05:25.553Z,5.00
2018-03-15T22:07:51.561Z,5.02
2018-03-15T22:10:17.616Z,5.02
2018-03-15T22:12:43.644Z,4.98
2018-03-15T22:15:09.686Z,5.04
2018-03-15T22:17:35.746Z,5.04
2018-03-15T22:20:01.809Z,5.02
2018-03-15T22:22:27.855Z,5.11
2018-03-15T22:24:53.978Z,5.04
2018-03-15T22:27:20.061Z,5.06
2018-03-15T22:29:46.073Z,5.02
2018-03-15T22:32:12.061Z,5.14
2018-03-15T22:34:38.089Z,5.07
2018-03-15T22:37:04.123Z,5.03
2018-03-15T22:39:30.130Z,5.07
2018-03-15T22:41:56.145Z,5.07
2018-03-15T22:44:22.170Z,5.08
2018-03-15T22:46:48.277Z,5.07
2018-03-15T22:49:14.284Z,5.06
2018-03-15T22:51:40.326Z,5.00
2018-03-15T22:54:06.462Z,4.98
2018-03-15T22:56:32.479Z,4.99
2018-03-15T22:58:58.541Z,4.98
2018-03-15T23:01:24.584Z,5.01
2018-03-15T23:03:50.649Z,4.93
2018-03-15T23:06:16.700Z,4.95
2018-03-15T23:08:42.748Z,4.99
2018-03-15T23:11:08.791Z,4.89
2018-03-15T23:13:34.786Z,4.87
2018-03-15T23:16:00.794Z,4.84
2018-03-15T23:18:26.806Z,4.84
2018-03-15T23:20:52.845Z,4.89
2018-03-15T23:23:18.869Z,4.87
2018-03-15T23:25:44.909Z,4.86
2018-03-15T23:28:10.969Z,4.86
2018-03-15T23:30:37.046Z,4.81
2018-03-15T23:33:03.069Z,4.78
2018-03-15T23:35:29.101Z,4.70
2018-03-15T23:37:55.113Z,4.62
2018-03-15T23:40:21.135Z,4.63
2018-03-15T23:42:47.136Z,4.59
2018-03-15T23:45:13.176Z,4.54
2018-03-15T23:47:39.181Z,4.53
2018-03-15T23:50:05.224Z,4.53
2018-03-15T23:52:31.294Z,4.41
2018-03-15T23:54:57.301Z,4.27
2018-03-15T23:57:23.412Z,4.29
2018-03-15T23:59:49.450Z,4.29
